Terminal Aerodrome Forecast
Issued by NWS Glasgow, MT

Home | Current Version | Previous Version | Text Only | Print | Product List | Glossary On
Versions: 1 2 3 4 5 6 7 8 9 10 11 12 13 14 15 16 17
990
FTUS45 KGGW 252330
TAFGGW
TAF
KGGW 252330Z 2600/2624 30024G32KT P6SM OVC045
     FM260400 31010KT P6SM SCT045
     FM261600 30013G19KT P6SM FEW080=

USA.gov is the U.S. government's official web portal to all federal, state and local government web resources and services.